Map

Track Data

SID SEASON NUMBER BASIN SUBBASIN NAME ISO_TIME NATURE LAT LON WMO_WIND WMO_PRES WMO_AGENCY TRACK_TYPE DIST2LAND LANDFALL IFLAG USA_AGENCY USA_ATCF_ID USA_LAT USA_LON USA_RECORD USA_STATUS USA_WIND USA_PRES USA_SSHS USA_R34_NE USA_R34_SE USA_R34_SW USA_R34_NW USA_R50_NE USA_R50_SE USA_R50_SW USA_R50_NW USA_R64_NE USA_R64_SE USA_R64_SW USA_R64_NW USA_POCI USA_ROCI USA_RMW USA_EYE TOKYO_LAT TOKYO_LON TOKYO_GRADE TOKYO_WIND TOKYO_PRES TOKYO_R50_DIR TOKYO_R50_LONG TOKYO_R50_SHORT TOKYO_R30_DIR TOKYO_R30_LONG TOKYO_R30_SHORT TOKYO_LAND CMA_LAT CMA_LON CMA_CAT CMA_WIND CMA_PRES HKO_LAT HKO_LON HKO_CAT HKO_WIND HKO_PRES NEWDELHI_LAT NEWDELHI_LON NEWDELHI_GRADE NEWDELHI_WIND NEWDELHI_PRES NEWDELHI_CI NEWDELHI_DP NEWDELHI_POCI REUNION_LAT REUNION_LON REUNION_TYPE REUNION_WIND REUNION_PRES REUNION_TNUM REUNION_CI REUNION_RMW REUNION_R34_NE REUNION_R34_SE REUNION_R34_SW REUNION_R34_NW REUNION_R50_NE REUNION_R50_SE REUNION_R50_SW REUNION_R50_NW REUNION_R64_NE REUNION_R64_SE REUNION_R64_SW REUNION_R64_NW BOM_LAT BOM_LON BOM_TYPE BOM_WIND BOM_PRES BOM_TNUM BOM_CI BOM_RMW BOM_R34_NE BOM_R34_SE BOM_R34_SW BOM_R34_NW BOM_R50_NE BOM_R50_SE BOM_R50_SW BOM_R50_NW BOM_R64_NE BOM_R64_SE BOM_R64_SW BOM_R64_NW BOM_ROCI BOM_POCI BOM_EYE BOM_POS_METHOD BOM_PRES_METHOD NADI_LAT NADI_LON NADI_CAT NADI_WIND NADI_PRES WELLINGTON_LAT WELLINGTON_LON WELLINGTON_WIND WELLINGTON_PRES DS824_LAT DS824_LON DS824_STAGE DS824_WIND DS824_PRES TD9636_LAT TD9636_LON TD9636_STAGE TD9636_WIND TD9636_PRES TD9635_LAT TD9635_LON TD9635_WIND TD9635_PRES TD9635_ROCI NEUMANN_LAT NEUMANN_LON NEUMANN_CLASS NEUMANN_WIND NEUMANN_PRES MLC_LAT MLC_LON MLC_CLASS MLC_WIND MLC_PRES USA_GUST BOM_GUST BOM_GUST_PER REUNION_GUST REUNION_GUST_PER USA_SEAHGT USA_SEARAD_NE USA_SEARAD_SE USA_SEARAD_SW USA_SEARAD_NW STORM_SPEED STORM_DIR
1962148N17065 1962 41 NI AS NOT_NAMED 1962-05-27 18:00:00 TS 16.9000 64.5000 main 742 742 O________O____ jtwc_io IO011962 16.9000 64.5000 -1 16.9000 64.5000 TC 1 248
1962148N17065 1962 41 NI AS NOT_NAMED 1962-05-27 21:00:00 TS 16.8849 64.4675 main 742 725 P________P____ IO011962 16.8849 64.4675 -1 16.8849 64.4675 TC 2 270
1962148N17065 1962 41 NI AS NOT_NAMED 1962-05-28 00:00:00 TS 16.9000 64.3000 main 725 682 O________O____ jtwc_io IO011962 16.9000 64.3000 -1 16.9000 64.3000 TC 25 5 279
1962148N17065 1962 41 NI AS NOT_NAMED 1962-05-28 03:00:00 TS 16.9734 63.9088 main 682 629 P________PO___ IO011962 16.9701 63.9099 -1 16.9701 63.9099 TC 25 17.0000 63.9000 1 9 284
1962148N17065 1962 41 NI AS NOT_NAMED 1962-05-28 06:00:00 TS 17.1104 63.4038 main 629 571 O________OP___ jtwc_io IO011962 17.1000 63.4000 -1 17.1000 63.4000 TC 25 17.1520 63.4191 1 10 289
1962148N17065 1962 41 NI AS NOT_NAMED 1962-05-28 09:00:00 TS 17.3007 62.9138 main 571 513 P________PP___ IO011962 17.2999 62.9076 -1 17.2999 62.9076 TC 25 17.3028 62.9303 1 10 291
1962148N17065 1962 41 NI AS NOT_NAMED 1962-05-28 12:00:00 TS 17.4841 62.4088 main 513 460 O________OP___ jtwc_io IO011962 17.5000 62.4000 -1 17.5000 62.4000 TC 25 17.4522 62.4263 1 10 288
1962148N17065 1962 41 NI AS NOT_NAMED 1962-05-28 15:00:00 TS 17.6049 61.9048 main 460 406 P________PO___ IO011962 17.6073 61.9072 -1 17.6073 61.9072 TC 25 17.6000 61.9000 1 10 283
1962148N17065 1962 41 NI AS NOT_NAMED 1962-05-28 18:00:00 TS 17.7149 61.3838 main 406 349 O________OP___ jtwc_io IO011962 17.7000 61.4000 -1 17.7000 61.4000 TC 25 17.7447 61.3514 1 11 284
1962148N17065 1962 41 NI AS NOT_NAMED 1962-05-28 21:00:00 TS 17.8603 60.8218 main 339 286 P________PP___ IO011962 17.8501 60.8276 -1 17.8501 60.8276 TC 25 17.8806 60.8103 1 11 286
1962148N17065 1962 41 NI AS NOT_NAMED 1962-05-29 00:00:00 TS 18.0004 60.3047 main 286 243 O________OP___ jtwc_io IO011962 18.0000 60.3000 -1 18.0000 60.3000 TC 25 18.0011 60.3140 1 9 286
1962148N17065 1962 41 NI AS NOT_NAMED 1962-05-29 03:00:00 TS 18.1149 59.8933 main 243 209 P________PO___ IO011962 18.1224 59.8900 -1 18.1224 59.8900 TC 25 18.1000 59.9000 1 7 286
1962148N17065 1962 41 NI AS NOT_NAMED 1962-05-29 06:00:00 TS 18.1889 59.6044 main 209 190 O________OP___ jtwc_io IO011962 18.2000 59.6000 -1 18.2000 59.6000 TC 25 18.1667 59.6133 1 5 281
1962148N17065 1962 41 NI AS NOT_NAMED 1962-05-29 09:00:00 TS 18.2046 59.4214 main 190 181 P________PP___ IO011962 18.1999 59.4274 -1 18.1999 59.4274 TC 25 18.2141 59.4095 1 3 275
1962148N17065 1962 41 NI AS NOT_NAMED 1962-05-29 12:00:00 TS 18.2181 59.2836 main 181 157 O________OP___ jtwc_io IO011962 18.2000 59.3000 -1 18.2000 59.3000 TC 25 18.2544 59.2509 1 3 287
1962148N17065 1962 41 NI AS NOT_NAMED 1962-05-29 15:00:00 TS 18.2950 59.1050 main 157 133 P________PO___ IO011962 18.2925 59.1076 -1 18.2925 59.1076 TC 25 18.3000 59.1000 1 4 295
1962148N17065 1962 41 NI AS NOT_NAMED 1962-05-29 18:00:00 TS 18.3840 58.9106 main 133 116 O________OP___ jtwc_io IO011962 18.4000 58.9000 -1 18.4000 58.9000 TC 25 18.3601 58.9265 1 4 293
1962148N17065 1962 41 NI AS NOT_NAMED 1962-05-29 21:00:00 TS 18.4513 58.7116 main 110 92 P________PP___ IO011962 18.4650 58.6975 -1 18.4650 58.6975 TC 25 18.4331 58.7304 1 4 288
1962148N17065 1962 41 NI AS NOT_NAMED 1962-05-30 00:00:00 TS 18.5072 58.5095 main 92 69 O________OP___ jtwc_io IO011962 18.5000 58.5000 -1 18.5000 58.5000 TC 25 18.5145 58.5190 1 4 291
1962148N17065 1962 41 NI AS NOT_NAMED 1962-05-30 03:00:00 NR 18.6000 58.3000 main 69 __________O___ IO011962 -1 TC 18.6000 58.3000 1 4 295

About IBTrACS Database

This database is a web-friendly format of International Best Track Archive for Climate Stewardship (IBTrACS), a global best track data archive curated by NOAA dating back to 1842.

Updated: 2021-12-03